createdAt,value
2022-09-30T00:01:36.633Z,86.50
2022-09-30T00:04:05.458Z,86.71
2022-09-30T00:06:36.133Z,87.09
2022-09-30T00:09:05.019Z,87.20
2022-09-30T00:11:38.733Z,87.01
2022-09-30T00:14:07.985Z,87.19
2022-09-30T00:16:38.125Z,87.62
2022-09-30T00:19:06.564Z,87.03
2022-09-30T00:21:35.195Z,87.15
2022-09-30T00:24:04.938Z,87.96
2022-09-30T00:26:35.797Z,87.94
2022-09-30T00:29:05.220Z,87.66
2022-09-30T00:31:35.831Z,88.38
2022-09-30T00:34:11.192Z,88.88
2022-09-30T00:36:44.406Z,88.53
2022-09-30T00:39:16.310Z,88.66
2022-09-30T00:41:47.482Z,88.19
2022-09-30T00:44:51.749Z,87.15
2022-09-30T00:47:46.835Z,87.21
2022-09-30T00:50:45.248Z,87.74
2022-09-30T00:53:17.689Z,86.97
2022-09-30T00:55:51.332Z,87.11
2022-09-30T00:58:25.800Z,86.88
2022-09-30T01:00:54.081Z,86.62
2022-09-30T01:03:23.825Z,86.41
2022-09-30T01:05:52.949Z,86.67
2022-09-30T01:08:22.090Z,86.97
2022-09-30T01:10:50.318Z,87.09
2022-09-30T01:13:23.674Z,87.16
2022-09-30T01:16:07.233Z,87.24
2022-09-30T01:18:50.126Z,87.35
2022-09-30T01:21:51.846Z,88.10
2022-09-30T01:24:39.749Z,87.89
2022-09-30T01:27:23.953Z,87.75
2022-09-30T01:30:12.501Z,88.14
2022-09-30T01:33:18.638Z,88.16
2022-09-30T01:36:07.321Z,88.30
2022-09-30T01:38:46.632Z,87.97
2022-09-30T01:41:22.977Z,87.89
2022-09-30T01:44:04.599Z,88.43
2022-09-30T01:46:38.564Z,88.39
2022-09-30T01:49:18.062Z,88.96
2022-09-30T01:51:55.243Z,88.89
2022-09-30T01:54:28.446Z,89.25
2022-09-30T01:57:02.281Z,89.02
2022-09-30T01:59:36.313Z,88.53
2022-09-30T02:02:10.804Z,88.62
2022-09-30T02:04:44.122Z,88.25
2022-09-30T02:07:18.296Z,88.61
2022-09-30T02:09:52.178Z,89.05
2022-09-30T02:12:22.472Z,88.85
2022-09-30T02:14:57.582Z,89.03
2022-09-30T02:17:30.714Z,88.63
2022-09-30T02:20:03.764Z,88.84
2022-09-30T02:22:37.506Z,88.97
2022-09-30T02:25:08.438Z,88.80
2022-09-30T02:27:42.320Z,89.03
2022-09-30T02:30:13.767Z,88.61
2022-09-30T02:32:47.600Z,89.28
2022-09-30T02:35:21.163Z,89.18
2022-09-30T02:37:53.758Z,88.58
2022-09-30T02:40:28.223Z,88.81
2022-09-30T02:42:56.701Z,88.79
2022-09-30T02:45:25.628Z,89.03
2022-09-30T02:48:17.825Z,89.13
2022-09-30T02:50:52.664Z,89.22
2022-09-30T02:53:28.234Z,89.28
2022-09-30T02:56:20.855Z,89.59
2022-09-30T02:58:51.095Z,88.96
2022-09-30T03:01:19.288Z,89.12
2022-09-30T03:03:50.292Z,89.00
2022-09-30T03:06:20.460Z,89.00
2022-09-30T03:08:48.773Z,89.13
2022-09-30T03:11:19.317Z,88.77
2022-09-30T03:14:24.094Z,89.17
2022-09-30T03:17:20.269Z,89.15
2022-09-30T03:20:04.365Z,89.40
2022-09-30T03:22:55.904Z,88.93
2022-09-30T03:25:36.500Z,89.47
2022-09-30T03:28:17.558Z,89.00
2022-09-30T03:30:53.110Z,89.18
2022-09-30T03:33:26.267Z,89.54
2022-09-30T03:36:01.852Z,89.27
2022-09-30T03:38:42.660Z,88.63
2022-09-30T03:41:16.788Z,88.87
2022-09-30T03:43:49.221Z,88.56
2022-09-30T03:46:23.245Z,89.51
2022-09-30T03:48:54.179Z,88.59
2022-09-30T03:51:24.947Z,88.98
2022-09-30T03:53:55.498Z,88.84
2022-09-30T03:56:28.400Z,88.95
2022-09-30T03:58:57.466Z,88.91
2022-09-30T04:01:25.931Z,89.29
2022-09-30T04:03:55.257Z,89.21
2022-09-30T04:06:25.355Z,88.77
2022-09-30T04:08:54.976Z,88.77
2022-09-30T04:11:23.090Z,89.41
2022-09-30T04:13:51.118Z,89.21
2022-09-30T04:16:19.260Z,89.46
2022-09-30T04:18:47.342Z,88.91
2022-09-30T04:21:17.088Z,89.10
2022-09-30T04:23:45.198Z,89.07
2022-09-30T04:26:15.902Z,88.92
2022-09-30T04:28:44.521Z,88.72
2022-09-30T04:31:14.052Z,88.53
2022-09-30T04:33:42.164Z,88.80
2022-09-30T04:36:11.301Z,88.96
2022-09-30T04:38:39.376Z,88.43
2022-09-30T04:41:08.329Z,88.78
2022-09-30T04:43:37.750Z,88.58
2022-09-30T04:46:06.403Z,88.84
2022-09-30T04:48:34.551Z,89.17
2022-09-30T04:51:02.643Z,88.42
2022-09-30T04:53:30.717Z,88.61
2022-09-30T04:56:03.348Z,89.04
2022-09-30T04:58:36.647Z,88.87
2022-09-30T05:01:08.115Z,88.69
2022-09-30T05:03:36.636Z,88.96
2022-09-30T05:06:06.113Z,88.94
2022-09-30T05:08:34.854Z,88.88
2022-09-30T05:11:05.707Z,89.65
2022-09-30T05:13:35.846Z,89.38
2022-09-30T05:16:04.563Z,88.99
2022-09-30T05:18:34.424Z,89.45
2022-09-30T05:21:03.221Z,89.04
2022-09-30T05:23:32.909Z,89.33
2022-09-30T05:26:01.428Z,88.86
2022-09-30T05:28:31.329Z,89.11
2022-09-30T05:31:01.320Z,88.31
2022-09-30T05:33:30.943Z,88.62
2022-09-30T05:36:02.553Z,89.04
2022-09-30T05:38:30.874Z,88.82
2022-09-30T05:40:59.039Z,88.22
2022-09-30T05:43:27.019Z,88.44
2022-09-30T05:45:55.746Z,87.95
2022-09-30T05:48:24.911Z,87.93
2022-09-30T05:50:55.941Z,88.44
2022-09-30T05:53:25.989Z,87.83
2022-09-30T05:55:54.020Z,88.28
2022-09-30T05:58:22.573Z,87.64
2022-09-30T06:00:50.857Z,88.02
2022-09-30T06:03:19.435Z,87.87
2022-09-30T06:05:47.719Z,88.09
2022-09-30T06:08:16.770Z,88.37
2022-09-30T06:10:46.666Z,88.00
2022-09-30T06:13:14.909Z,88.38
2022-09-30T06:15:42.970Z,88.17
2022-09-30T06:18:17.035Z,88.06
2022-09-30T06:20:45.807Z,87.94
2022-09-30T06:23:13.803Z,87.98
2022-09-30T06:25:43.715Z,88.52
2022-09-30T06:28:13.261Z,87.66
2022-09-30T06:30:41.300Z,88.08
2022-09-30T06:33:09.295Z,87.88
2022-09-30T06:35:38.069Z,88.68
2022-09-30T06:38:06.068Z,87.94
2022-09-30T06:40:34.084Z,88.24
2022-09-30T06:43:03.450Z,87.32
2022-09-30T06:45:35.711Z,86.91
2022-09-30T06:48:06.015Z,87.78
2022-09-30T06:50:34.439Z,87.52
2022-09-30T06:53:06.173Z,87.37
2022-09-30T06:55:36.613Z,88.00
2022-09-30T06:58:04.729Z,88.66
2022-09-30T07:00:34.183Z,88.50
2022-09-30T07:03:02.200Z,87.85
2022-09-30T07:05:30.463Z,87.91
2022-09-30T07:08:00.228Z,87.90
2022-09-30T07:10:28.348Z,87.50
2022-09-30T07:12:56.394Z,87.37
2022-09-30T07:15:24.396Z,87.53
2022-09-30T07:17:56.658Z,86.89
2022-09-30T07:20:24.837Z,87.04
2022-09-30T07:22:52.918Z,86.70
2022-09-30T07:25:20.898Z,86.15
2022-09-30T07:27:48.702Z,87.17
2022-09-30T07:30:25.879Z,87.21
2022-09-30T07:32:56.419Z,86.29
2022-09-30T07:35:24.311Z,86.42
2022-09-30T07:37:52.213Z,86.91
2022-09-30T07:40:20.152Z,85.86
2022-09-30T07:42:48.048Z,86.61
2022-09-30T07:45:19.415Z,85.61
2022-09-30T07:47:52.706Z,85.60
2022-09-30T07:50:23.037Z,85.00
2022-09-30T07:52:50.920Z,85.05
2022-09-30T07:55:18.838Z,85.02
2022-09-30T07:57:46.742Z,85.20
2022-09-30T08:00:40.540Z,84.35
2022-09-30T08:03:02.627Z,83.96
2022-09-30T08:05:31.914Z,84.08
2022-09-30T08:07:59.831Z,84.30
2022-09-30T08:10:27.722Z,83.84
2022-09-30T08:12:58.025Z,83.80
2022-09-30T08:15:27.848Z,83.40
2022-09-30T08:17:55.727Z,83.40
2022-09-30T08:20:23.577Z,83.60
2022-09-30T08:22:55.288Z,83.10
2022-09-30T08:25:23.770Z,83.33
2022-09-30T08:27:52.265Z,83.19
2022-09-30T08:30:20.172Z,83.37
2022-09-30T08:32:48.092Z,83.38
2022-09-30T08:35:16.248Z,81.83
2022-09-30T08:37:44.428Z,80.73
2022-09-30T08:40:21.097Z,80.84
2022-09-30T08:43:04.790Z,80.25
2022-09-30T08:45:41.115Z,80.91
2022-09-30T08:48:21.772Z,80.62
2022-09-30T08:51:00.937Z,80.50
2022-09-30T08:53:32.757Z,78.76
2022-09-30T08:56:03.425Z,78.64
2022-09-30T08:58:33.880Z,78.86
2022-09-30T09:01:07.950Z,77.85
2022-09-30T09:03:36.052Z,78.69
2022-09-30T09:06:19.700Z,78.85
2022-09-30T09:09:03.495Z,78.72
2022-09-30T09:11:47.412Z,77.91
2022-09-30T09:14:25.602Z,77.59
2022-09-30T09:17:10.658Z,76.17
2022-09-30T09:19:48.580Z,75.63
2022-09-30T09:22:18.218Z,75.53
2022-09-30T09:24:51.160Z,75.11
2022-09-30T09:27:24.505Z,74.93
2022-09-30T09:30:02.663Z,74.56
2022-09-30T09:32:30.583Z,74.67
2022-09-30T09:35:02.736Z,74.09
2022-09-30T09:37:55.951Z,74.19
2022-09-30T09:40:34.312Z,74.51
2022-09-30T09:43:13.211Z,73.65
2022-09-30T09:45:50.939Z,73.40
2022-09-30T09:48:18.873Z,73.93
2022-09-30T09:50:56.851Z,72.74
2022-09-30T09:53:42.598Z,70.85
2022-09-30T09:56:18.718Z,70.97
2022-09-30T09:59:09.356Z,70.37
2022-09-30T10:01:40.363Z,71.01
2022-09-30T10:04:11.720Z,70.16
2022-09-30T10:06:48.611Z,71.49
2022-09-30T10:09:24.481Z,69.77
2022-09-30T10:11:52.512Z,70.19
2022-09-30T10:14:23.456Z,72.07
2022-09-30T10:16:51.539Z,70.74
2022-09-30T10:19:22.643Z,70.29
2022-09-30T10:21:52.881Z,68.19
2022-09-30T10:24:30.615Z,68.00
2022-09-30T10:26:58.610Z,67.09
2022-09-30T10:29:31.908Z,66.52
2022-09-30T10:32:01.046Z,67.46
2022-09-30T10:34:33.231Z,68.33
2022-09-30T10:37:08.543Z,66.88
2022-09-30T10:39:38.919Z,65.62
2022-09-30T10:42:12.583Z,65.88
2022-09-30T10:44:45.940Z,66.45
2022-09-30T10:47:17.363Z,66.16
2022-09-30T10:49:48.721Z,66.89
2022-09-30T10:52:20.368Z,64.46
2022-09-30T10:54:51.831Z,65.10
2022-09-30T10:57:24.141Z,63.91
2022-09-30T10:59:58.735Z,62.82
2022-09-30T11:02:36.145Z,63.65
2022-09-30T11:05:21.096Z,62.85
2022-09-30T11:07:55.638Z,62.87
2022-09-30T11:10:35.955Z,63.67
2022-09-30T11:13:14.398Z,63.33
2022-09-30T11:16:03.986Z,61.33
2022-09-30T11:18:37.009Z,60.12
2022-09-30T11:21:13.922Z,60.25
2022-09-30T11:23:47.218Z,59.44
2022-09-30T11:26:29.007Z,59.74
2022-09-30T11:29:13.669Z,58.98
2022-09-30T11:31:53.354Z,59.26
2022-09-30T11:34:35.893Z,58.23
2022-09-30T11:37:16.492Z,56.83
2022-09-30T11:40:16.414Z,54.80
2022-09-30T11:42:51.253Z,55.73
2022-09-30T11:45:31.641Z,56.36
2022-09-30T11:48:19.313Z,55.33
2022-09-30T11:50:58.249Z,55.55
2022-09-30T11:53:35.823Z,56.27
2022-09-30T11:56:14.024Z,54.93
2022-09-30T11:58:48.907Z,55.27
2022-09-30T12:01:30.009Z,56.01
2022-09-30T12:04:06.817Z,55.07
2022-09-30T12:06:37.405Z,55.18
2022-09-30T12:09:15.408Z,54.35
2022-09-30T12:11:50.250Z,54.60
2022-09-30T12:14:23.360Z,55.76
2022-09-30T12:16:51.860Z,55.62
2022-09-30T12:19:26.513Z,54.44
2022-09-30T12:22:00.092Z,54.38
2022-09-30T12:24:36.162Z,55.02
2022-09-30T12:27:05.391Z,53.96
2022-09-30T12:29:56.490Z,54.10
2022-09-30T12:32:51.618Z,54.50
2022-09-30T12:35:37.976Z,55.75
2022-09-30T12:38:28.335Z,55.85
2022-09-30T12:41:11.997Z,57.12
2022-09-30T12:44:16.759Z,58.63
2022-09-30T12:47:01.005Z,59.71
2022-09-30T12:49:30.822Z,58.88
2022-09-30T12:52:06.842Z,59.54
2022-09-30T12:54:39.514Z,59.83
2022-09-30T12:57:10.550Z,59.19
2022-09-30T12:59:46.607Z,59.14
2022-09-30T13:02:31.937Z,60.76
2022-09-30T13:05:38.180Z,59.83
2022-09-30T13:08:25.395Z,60.14
2022-09-30T13:10:59.536Z,60.25
2022-09-30T13:13:29.228Z,60.02
2022-09-30T13:16:03.279Z,59.54
2022-09-30T13:19:03.030Z,60.13
2022-09-30T13:21:32.563Z,59.70
2022-09-30T13:24:03.775Z,60.13
2022-09-30T13:27:08.435Z,60.30
2022-09-30T13:29:40.110Z,59.68
2022-09-30T13:32:10.591Z,59.39
2022-09-30T13:34:56.959Z,59.91
2022-09-30T13:37:34.622Z,60.41
2022-09-30T13:40:07.539Z,61.31
2022-09-30T13:42:42.571Z,61.16
2022-09-30T13:45:17.673Z,62.01
2022-09-30T13:47:50.566Z,61.00
2022-09-30T13:50:22.224Z,60.89
2022-09-30T13:52:55.040Z,59.68
2022-09-30T13:55:29.668Z,59.86
2022-09-30T13:58:12.161Z,60.51
2022-09-30T14:00:54.500Z,58.56
2022-09-30T14:03:44.807Z,58.09
2022-09-30T14:06:24.959Z,57.93
2022-09-30T14:09:18.248Z,58.78
2022-09-30T14:12:04.692Z,57.54
2022-09-30T14:15:02.484Z,56.54
2022-09-30T14:17:44.345Z,56.97
2022-09-30T14:20:38.073Z,57.44
2022-09-30T14:23:14.523Z,57.67
2022-09-30T14:25:50.763Z,57.64
2022-09-30T14:28:26.824Z,57.11
2022-09-30T14:31:13.281Z,57.17
2022-09-30T14:33:43.625Z,57.17
2022-09-30T14:36:15.987Z,56.06
2022-09-30T14:38:47.167Z,52.77
2022-09-30T14:41:20.901Z,53.09
2022-09-30T14:43:53.152Z,54.11
2022-09-30T14:46:30.264Z,55.24
2022-09-30T14:49:04.628Z,56.53
2022-09-30T14:51:43.303Z,56.73
2022-09-30T14:54:19.058Z,56.60
2022-09-30T14:56:48.315Z,56.75
2022-09-30T14:59:22.959Z,55.66
2022-09-30T15:01:55.523Z,55.23
2022-09-30T15:04:26.836Z,55.18
2022-09-30T15:06:56.675Z,57.44
2022-09-30T15:09:28.588Z,56.93
2022-09-30T15:11:58.289Z,57.38
2022-09-30T15:14:27.874Z,57.61
2022-09-30T15:16:59.490Z,57.35
2022-09-30T15:19:35.320Z,57.83
2022-09-30T15:22:05.957Z,57.85
2022-09-30T15:24:36.491Z,58.23
2022-09-30T15:27:06.235Z,58.46
2022-09-30T15:29:35.704Z,57.91
2022-09-30T15:32:12.939Z,58.19
2022-09-30T15:34:43.610Z,58.72
2022-09-30T15:37:21.668Z,58.76
2022-09-30T15:40:07.793Z,58.72
2022-09-30T15:42:38.631Z,58.25
2022-09-30T15:45:35.001Z,59.40
2022-09-30T15:48:06.165Z,58.89
2022-09-30T15:50:39.957Z,59.28
2022-09-30T15:53:19.053Z,59.19
2022-09-30T15:55:50.641Z,58.83
2022-09-30T15:58:37.879Z,58.90
2022-09-30T16:01:18.632Z,59.21
2022-09-30T16:03:54.334Z,58.60
2022-09-30T16:06:29.405Z,59.32
2022-09-30T16:09:01.418Z,59.67
2022-09-30T16:11:34.888Z,60.31
2022-09-30T16:14:06.156Z,59.73
2022-09-30T16:16:39.077Z,59.87
2022-09-30T16:19:07.946Z,59.96
2022-09-30T16:21:44.948Z,63.19
2022-09-30T16:24:44.342Z,61.08
2022-09-30T16:27:29.202Z,60.24
2022-09-30T16:29:57.844Z,61.22
2022-09-30T16:32:33.786Z,60.94
2022-09-30T16:35:02.116Z,62.06
2022-09-30T16:37:30.707Z,60.62
2022-09-30T16:40:08.660Z,61.36
2022-09-30T16:42:36.915Z,61.18
2022-09-30T16:45:06.736Z,61.97
2022-09-30T16:47:36.193Z,62.04
2022-09-30T16:50:16.634Z,62.09
2022-09-30T16:52:44.754Z,63.14
2022-09-30T16:55:12.975Z,64.61
2022-09-30T16:57:41.229Z,64.16
2022-09-30T17:00:15.617Z,65.63
2022-09-30T17:02:45.972Z,66.24
2022-09-30T17:05:16.209Z,66.79
2022-09-30T17:07:45.926Z,67.18
2022-09-30T17:10:21.339Z,67.89
2022-09-30T17:12:50.259Z,68.67
2022-09-30T17:15:19.728Z,69.65
2022-09-30T17:17:49.254Z,70.37
2022-09-30T17:20:17.492Z,69.96
2022-09-30T17:22:46.291Z,70.29
2022-09-30T17:25:15.050Z,70.97
2022-09-30T17:27:44.199Z,70.86
2022-09-30T17:30:13.071Z,72.22
2022-09-30T17:32:42.491Z,72.02
2022-09-30T17:35:12.763Z,72.42
2022-09-30T17:37:43.815Z,73.55
2022-09-30T17:40:34.300Z,73.74
2022-09-30T17:43:14.625Z,73.22
2022-09-30T17:45:46.240Z,73.64
2022-09-30T17:48:16.264Z,74.51
2022-09-30T17:50:49.102Z,73.73
2022-09-30T17:53:19.108Z,74.10
2022-09-30T17:55:49.234Z,74.41
2022-09-30T17:58:18.965Z,74.89
2022-09-30T18:00:47.871Z,75.14
2022-09-30T18:03:15.923Z,75.27
2022-09-30T18:05:45.801Z,75.52
2022-09-30T18:08:14.448Z,75.14
2022-09-30T18:10:42.621Z,75.20
2022-09-30T18:13:11.577Z,75.25
2022-09-30T18:15:40.015Z,76.32
2022-09-30T18:18:08.443Z,75.87
2022-09-30T18:20:36.459Z,75.95
2022-09-30T18:23:07.730Z,76.13
2022-09-30T18:25:35.755Z,75.85
2022-09-30T18:28:03.947Z,75.99
2022-09-30T18:30:32.201Z,77.06
2022-09-30T18:33:00.195Z,77.17
2022-09-30T18:35:30.191Z,77.90
2022-09-30T18:37:58.405Z,78.07
2022-09-30T18:40:30.180Z,77.86
2022-09-30T18:43:01.798Z,78.77
2022-09-30T18:45:32.535Z,78.67
2022-09-30T18:48:01.546Z,78.21
2022-09-30T18:50:31.283Z,78.67
2022-09-30T18:53:03.661Z,78.86
2022-09-30T18:55:39.508Z,78.59
2022-09-30T18:58:07.719Z,77.97
2022-09-30T19:00:36.086Z,78.42
2022-09-30T19:03:10.213Z,78.86
2022-09-30T19:05:38.119Z,78.42
2022-09-30T19:08:06.144Z,78.74
2022-09-30T19:10:34.778Z,79.02
2022-09-30T19:13:04.007Z,78.47
2022-09-30T19:15:31.881Z,78.93
2022-09-30T19:17:59.963Z,78.99
2022-09-30T19:20:28.226Z,79.17
2022-09-30T19:22:56.095Z,79.12
2022-09-30T19:25:24.063Z,79.43
2022-09-30T19:27:53.011Z,79.46
2022-09-30T19:30:25.727Z,79.64
2022-09-30T19:32:59.365Z,79.31
2022-09-30T19:35:37.784Z,79.38
2022-09-30T19:38:08.405Z,79.46
2022-09-30T19:40:37.275Z,78.93
2022-09-30T19:43:06.363Z,79.36
2022-09-30T19:45:36.197Z,79.97
2022-09-30T19:48:04.211Z,79.82
2022-09-30T19:50:34.174Z,80.66
2022-09-30T19:53:02.105Z,80.19
2022-09-30T19:55:32.803Z,80.07
2022-09-30T19:58:04.143Z,81.79
2022-09-30T20:00:32.251Z,81.44
2022-09-30T20:03:01.567Z,81.53
2022-09-30T20:05:29.501Z,81.29
2022-09-30T20:07:57.399Z,81.23
2022-09-30T20:10:25.857Z,82.03
2022-09-30T20:12:54.096Z,81.36
2022-09-30T20:15:45.291Z,81.15
2022-09-30T20:18:16.896Z,81.58
2022-09-30T20:20:47.992Z,81.49
2022-09-30T20:23:16.274Z,81.73
2022-09-30T20:25:44.313Z,80.99
2022-09-30T20:28:12.549Z,80.77
2022-09-30T20:30:47.703Z,81.25
2022-09-30T20:33:19.365Z,80.57
2022-09-30T20:35:48.098Z,80.58
2022-09-30T20:38:19.256Z,80.87
2022-09-30T20:40:47.195Z,81.98
2022-09-30T20:43:15.101Z,81.81
2022-09-30T20:45:43.094Z,82.52
2022-09-30T20:48:10.954Z,83.10
2022-09-30T20:50:43.462Z,83.02
2022-09-30T20:53:13.750Z,82.94
2022-09-30T20:55:44.650Z,83.22
2022-09-30T20:58:14.274Z,83.18
2022-09-30T21:00:43.313Z,82.82
2022-09-30T21:03:13.285Z,83.43
2022-09-30T21:05:42.653Z,83.25
2022-09-30T21:08:10.573Z,83.35
2022-09-30T21:10:38.810Z,82.83
2022-09-30T21:13:11.360Z,82.55
2022-09-30T21:15:40.068Z,82.93
2022-09-30T21:18:10.139Z,81.96
2022-09-30T21:20:38.336Z,82.26
2022-09-30T21:23:07.600Z,82.31
2022-09-30T21:25:35.447Z,82.79
2022-09-30T21:28:03.485Z,83.07
2022-09-30T21:30:31.463Z,82.97
2022-09-30T21:32:59.484Z,83.16
2022-09-30T21:35:27.638Z,82.55
2022-09-30T21:37:55.443Z,82.40
2022-09-30T21:40:24.777Z,82.56
2022-09-30T21:42:52.743Z,82.82
2022-09-30T21:45:20.671Z,81.79
2022-09-30T21:47:49.924Z,82.88
2022-09-30T21:50:18.300Z,83.01
2022-09-30T21:52:47.413Z,83.13
2022-09-30T21:55:15.364Z,82.71
2022-09-30T21:57:45.903Z,82.64
2022-09-30T22:00:14.290Z,82.80
2022-09-30T22:02:42.225Z,82.84
2022-09-30T22:05:11.036Z,82.90
2022-09-30T22:07:39.102Z,82.25
2022-09-30T22:10:09.039Z,82.59
2022-09-30T22:12:37.074Z,82.57
2022-09-30T22:15:07.352Z,82.57
2022-09-30T22:17:35.226Z,83.69
2022-09-30T22:20:03.183Z,83.32
2022-09-30T22:22:31.055Z,83.08
2022-09-30T22:24:58.953Z,83.03
2022-09-30T22:27:27.035Z,82.42
2022-09-30T22:29:54.903Z,83.46
2022-09-30T22:32:24.115Z,83.61
2022-09-30T22:35:23.819Z,83.01
2022-09-30T22:38:09.246Z,82.66
2022-09-30T22:40:37.444Z,82.56
2022-09-30T22:43:05.396Z,83.07
2022-09-30T22:45:33.847Z,83.32
2022-09-30T22:48:03.387Z,82.57
2022-09-30T22:50:32.565Z,82.72
2022-09-30T22:53:00.444Z,83.83
2022-09-30T22:55:28.483Z,83.34
2022-09-30T22:57:56.368Z,83.15
2022-09-30T23:00:24.453Z,82.57
2022-09-30T23:02:52.867Z,82.31
2022-09-30T23:05:22.260Z,83.16
2022-09-30T23:07:50.258Z,82.62
2022-09-30T23:10:18.143Z,81.95
2022-09-30T23:12:46.272Z,82.62
2022-09-30T23:15:14.323Z,82.62
2022-09-30T23:17:42.208Z,83.57
2022-09-30T23:20:10.461Z,83.25
2022-09-30T23:22:39.788Z,82.91
2022-09-30T23:25:08.954Z,83.28
2022-09-30T23:27:36.857Z,83.30
2022-09-30T23:30:05.128Z,82.79
2022-09-30T23:32:33.060Z,83.68
2022-09-30T23:35:01.499Z,83.32
2022-09-30T23:37:29.379Z,83.45
2022-09-30T23:39:58.667Z,83.77
2022-09-30T23:42:26.567Z,83.70
2022-09-30T23:44:54.401Z,83.50
2022-09-30T23:47:22.662Z,82.85
2022-09-30T23:49:50.524Z,83.41
2022-09-30T23:52:18.509Z,83.18
2022-09-30T23:54:46.469Z,82.89
2022-09-30T23:57:15.843Z,83.12
2022-09-30T23:59:43.746Z,83.24
